Etusivu
METAR-TAF:

METAR-TAF

Lentoasemat :

Aarhus, Tanska

Leveyspiiri: 56-18N, Pituuspiiri: 010-37E, korkeus merenpinnasta: 23 m

Tämänhetkinen sää

Tämä raportti tehtiin 31 minuuttia sitten, kello 03.20 UTC
Tuuli 5 kn lännestä
Lämpötila 13°C
Kosteus 94%
Ilmanpaine 1017 hPa
Näkyvyys 10 km tai enemmän

METAR: EKAH 250320Z AUTO 27005KT 9999NDV SCT100/// SCT130/// 13/12 Q1017

Aika: 05:51 (03:51 UTC)

Sääennuste

Tämä raportti tehtiin 4 tuntia ja 47 minuuttia sitten, kello 23.04 UTC
Ennuste voimassa 25. päivästä klo 00 UTC - 25. päivään klo 24 UTC
Tuuli 5 kn lännestä/luoteesta
Näkyvyys 10 km tai enemmän
Muutamia pilviä 3500 ft:n korkeudessa

TAF: EKAH 242304Z 2500/2524 29005KT 9999 FEW035

Säähavainnot ja -ennusteet yli 4000 lentoasemalta (METAR- ja TAF-raportit).

Käytössä olevat sääasemat on merkitty karttaan keltaisilla ja punaisilla pisteillä.

Aseta hiiri pisteen päälle nähdäksesi sääaseman nimen.

Klikkaa sitten nähdäksesi säähavainnot ja -ennusteet.

Kartan vaihtaminen: klikkaa mustalla rastilla varustettuja vihreitä pisteitä, niin voit zoomata sisään; viivalla varustettua vihreää pistettä, niin voit zoomata ulos tai vihreitä nuolia, niin pääset viereisille kartoille.


METAR-TAF: